createdAt,value
2023-01-13T00:01:29.099Z,63.77
2023-01-13T00:03:57.287Z,63.53
2023-01-13T00:06:26.187Z,63.92
2023-01-13T00:08:55.477Z,63.73
2023-01-13T00:11:26.208Z,63.40
2023-01-13T00:13:55.641Z,63.38
2023-01-13T00:16:24.477Z,62.13
2023-01-13T00:18:52.106Z,63.17
2023-01-13T00:21:23.051Z,63.24
2023-01-13T00:23:59.016Z,63.52
2023-01-13T00:26:30.873Z,63.65
2023-01-13T00:28:59.031Z,63.43
2023-01-13T00:31:29.687Z,63.62
2023-01-13T00:34:01.642Z,63.63
2023-01-13T00:36:31.451Z,63.73
2023-01-13T00:38:59.958Z,63.58
2023-01-13T00:41:29.314Z,63.48
2023-01-13T00:43:57.853Z,63.27
2023-01-13T00:46:25.666Z,63.61
2023-01-13T00:48:54.231Z,64.28
2023-01-13T00:51:22.606Z,64.00
2023-01-13T00:53:52.034Z,63.93
2023-01-13T00:56:38.551Z,63.84
2023-01-13T00:59:12.492Z,63.92
2023-01-13T01:01:41.133Z,63.98
2023-01-13T01:04:09.552Z,63.86
2023-01-13T01:06:37.737Z,64.12
2023-01-13T01:09:06.631Z,63.87
2023-01-13T01:11:34.922Z,64.08
2023-01-13T01:14:04.410Z,63.15
2023-01-13T01:16:33.385Z,63.58
2023-01-13T01:19:02.336Z,63.90
2023-01-13T01:21:35.277Z,64.27
2023-01-13T01:24:06.236Z,64.12
2023-01-13T01:26:35.981Z,64.54
2023-01-13T01:29:04.776Z,64.49
2023-01-13T01:31:33.671Z,64.40
2023-01-13T01:34:02.204Z,64.25
2023-01-13T01:36:30.351Z,64.06
2023-01-13T01:38:59.346Z,64.09
2023-01-13T01:41:29.961Z,64.40
2023-01-13T01:44:05.951Z,64.57
2023-01-13T01:46:40.613Z,64.75
2023-01-13T01:49:31.613Z,64.57
2023-01-13T01:52:03.882Z,64.49
2023-01-13T01:54:56.857Z,64.41
2023-01-13T01:57:54.261Z,64.14
2023-01-13T02:00:22.352Z,64.05
2023-01-13T02:02:51.667Z,64.17
2023-01-13T02:05:20.064Z,64.29
2023-01-13T02:07:49.137Z,63.62
2023-01-13T02:10:21.159Z,64.00
2023-01-13T02:12:50.549Z,63.63
2023-01-13T02:15:30.696Z,64.75
2023-01-13T02:18:36.077Z,65.03
2023-01-13T02:21:07.918Z,64.30
2023-01-13T02:24:15.731Z,64.88
2023-01-13T02:27:06.773Z,64.67
2023-01-13T02:30:15.680Z,64.21
2023-01-13T02:32:51.331Z,64.70
2023-01-13T02:35:33.417Z,64.92
2023-01-13T02:38:02.189Z,64.45
2023-01-13T02:40:40.891Z,64.11
2023-01-13T02:43:41.535Z,64.36
2023-01-13T02:46:30.478Z,64.58
2023-01-13T02:49:04.391Z,64.61
2023-01-13T02:51:32.879Z,64.60
2023-01-13T02:54:08.939Z,64.03
2023-01-13T02:56:40.588Z,64.44
2023-01-13T02:59:09.636Z,64.65
2023-01-13T03:01:37.371Z,64.02
2023-01-13T03:04:14.937Z,63.62
2023-01-13T03:06:59.093Z,64.38
2023-01-13T03:09:38.188Z,64.35
2023-01-13T03:12:47.175Z,64.65
2023-01-13T03:15:25.330Z,64.22
2023-01-13T03:18:03.489Z,64.15
2023-01-13T03:20:34.887Z,64.58
2023-01-13T03:23:21.275Z,64.42
2023-01-13T03:26:07.252Z,64.38
2023-01-13T03:28:42.169Z,65.23
2023-01-13T03:31:15.518Z,63.75
2023-01-13T03:33:49.700Z,63.49
2023-01-13T03:36:18.393Z,64.80
2023-01-13T03:38:51.763Z,63.92
2023-01-13T03:41:28.007Z,64.37
2023-01-13T03:44:24.582Z,64.70
2023-01-13T03:46:55.026Z,65.25
2023-01-13T03:49:46.824Z,65.43
2023-01-13T03:52:20.766Z,65.72
2023-01-13T03:54:52.792Z,65.46
2023-01-13T03:57:24.613Z,65.62
2023-01-13T03:59:57.158Z,65.70
2023-01-13T04:02:38.620Z,64.10
2023-01-13T04:05:09.387Z,64.52
2023-01-13T04:07:50.728Z,64.55
2023-01-13T04:10:23.844Z,63.59
2023-01-13T04:13:01.957Z,64.31
2023-01-13T04:15:36.363Z,65.32
2023-01-13T04:18:16.270Z,65.17
2023-01-13T04:20:46.906Z,65.12
2023-01-13T04:23:17.367Z,65.01
2023-01-13T04:25:46.006Z,65.39
2023-01-13T04:28:14.504Z,65.72
2023-01-13T04:30:42.901Z,65.37
2023-01-13T04:33:12.326Z,65.44
2023-01-13T04:35:40.529Z,64.65
2023-01-13T04:38:11.042Z,64.07
2023-01-13T04:40:40.324Z,64.00
2023-01-13T04:43:08.393Z,64.52
2023-01-13T04:45:36.846Z,65.38
2023-01-13T04:48:06.290Z,65.04
2023-01-13T04:50:36.790Z,65.37
2023-01-13T04:53:07.573Z,65.07
2023-01-13T04:55:36.515Z,64.93
2023-01-13T04:58:05.948Z,64.87
2023-01-13T05:00:34.808Z,65.13
2023-01-13T05:03:03.065Z,64.57
2023-01-13T05:05:31.260Z,65.11
2023-01-13T05:08:01.277Z,63.80
2023-01-13T05:10:29.294Z,64.08
2023-01-13T05:13:17.022Z,64.75
2023-01-13T05:16:06.874Z,64.95
2023-01-13T05:18:35.158Z,65.11
2023-01-13T05:21:26.528Z,64.19
2023-01-13T05:24:16.097Z,62.99
2023-01-13T05:26:44.889Z,63.76
2023-01-13T05:29:12.566Z,64.64
2023-01-13T05:31:40.417Z,64.92
2023-01-13T05:34:08.258Z,64.90
2023-01-13T05:36:36.447Z,65.47
2023-01-13T05:39:06.513Z,65.27
2023-01-13T05:41:53.348Z,65.12
2023-01-13T05:44:21.427Z,65.00
2023-01-13T05:46:51.763Z,65.62
2023-01-13T05:49:20.341Z,65.39
2023-01-13T05:51:48.317Z,65.17
2023-01-13T05:54:16.367Z,64.74
2023-01-13T05:56:44.226Z,64.92
2023-01-13T05:59:15.670Z,65.02
2023-01-13T06:01:46.051Z,64.96
2023-01-13T06:04:22.770Z,63.77
2023-01-13T06:06:54.366Z,63.95
2023-01-13T06:09:22.899Z,64.66
2023-01-13T06:11:51.742Z,64.73
2023-01-13T06:14:25.253Z,64.85
2023-01-13T06:16:59.299Z,64.87
2023-01-13T06:19:27.318Z,64.69
2023-01-13T06:21:58.242Z,65.15
2023-01-13T06:24:28.572Z,65.15
2023-01-13T06:27:00.685Z,65.14
2023-01-13T06:29:30.295Z,65.01
2023-01-13T06:32:05.748Z,64.98
2023-01-13T06:34:35.214Z,64.81
2023-01-13T06:37:03.912Z,65.23
2023-01-13T06:39:32.939Z,64.98
2023-01-13T06:42:22.036Z,65.11
2023-01-13T06:44:51.628Z,65.01
2023-01-13T06:47:19.476Z,64.81
2023-01-13T06:49:49.698Z,65.44
2023-01-13T06:52:20.273Z,65.22
2023-01-13T06:54:48.522Z,66.04
2023-01-13T06:57:25.244Z,64.35
2023-01-13T06:59:53.801Z,64.68
2023-01-13T07:02:22.308Z,65.35
2023-01-13T07:04:54.281Z,64.78
2023-01-13T07:07:23.215Z,66.06
2023-01-13T07:09:56.227Z,67.08
2023-01-13T07:12:26.399Z,65.93
2023-01-13T07:15:13.043Z,66.48
2023-01-13T07:17:41.671Z,66.42
2023-01-13T07:20:10.211Z,66.47
2023-01-13T07:22:38.720Z,66.30
2023-01-13T07:25:07.519Z,66.63
2023-01-13T07:27:35.583Z,66.41
2023-01-13T07:30:05.288Z,66.25
2023-01-13T07:32:34.316Z,66.52
2023-01-13T07:35:05.813Z,65.42
2023-01-13T07:37:39.637Z,65.06
2023-01-13T07:40:13.416Z,65.22
2023-01-13T07:43:01.575Z,65.22
2023-01-13T07:45:30.643Z,66.37
2023-01-13T07:48:07.718Z,66.73
2023-01-13T07:50:35.843Z,66.87
2023-01-13T07:53:05.118Z,66.96
2023-01-13T07:55:33.360Z,66.99
2023-01-13T07:58:01.322Z,66.81
2023-01-13T08:03:11.752Z,66.85
2023-01-13T08:05:39.282Z,65.49
2023-01-13T08:08:15.902Z,65.81
2023-01-13T08:10:47.302Z,66.46
2023-01-13T08:13:21.032Z,66.52
2023-01-13T08:15:52.157Z,66.67
2023-01-13T08:18:22.415Z,67.23
2023-01-13T08:20:55.318Z,66.92
2023-01-13T08:23:24.563Z,66.30
2023-01-13T08:25:55.592Z,66.70
2023-01-13T08:28:24.250Z,66.76
2023-01-13T08:30:54.215Z,67.50
2023-01-13T08:33:22.146Z,66.22
2023-01-13T08:35:52.683Z,66.05
2023-01-13T08:38:21.933Z,66.41
2023-01-13T08:40:51.529Z,66.42
2023-01-13T08:43:19.540Z,66.50
2023-01-13T08:45:57.290Z,66.81
2023-01-13T08:48:26.492Z,67.09
2023-01-13T08:51:02.518Z,67.00
2023-01-13T08:53:31.281Z,66.81
2023-01-13T08:56:02.771Z,66.41
2023-01-13T08:58:35.458Z,66.98
2023-01-13T09:01:06.204Z,66.74
2023-01-13T09:03:33.982Z,66.95
2023-01-13T09:06:03.847Z,66.34
2023-01-13T09:08:31.977Z,66.57
2023-01-13T09:11:00.271Z,67.15
2023-01-13T09:13:28.478Z,66.80
2023-01-13T09:15:58.238Z,66.54
2023-01-13T09:18:32.064Z,66.26
2023-01-13T09:21:00.290Z,66.26
2023-01-13T09:23:31.771Z,67.01
2023-01-13T09:26:02.801Z,67.06
2023-01-13T09:28:33.062Z,66.95
2023-01-13T09:31:02.781Z,66.76
2023-01-13T09:33:50.304Z,67.47
2023-01-13T09:36:19.153Z,67.36
2023-01-13T09:38:53.632Z,67.77
2023-01-13T09:41:43.714Z,67.14
2023-01-13T09:44:25.360Z,67.93
2023-01-13T09:47:04.153Z,67.95
2023-01-13T09:49:41.276Z,67.36
2023-01-13T09:52:16.048Z,66.75
2023-01-13T09:54:50.453Z,67.49
2023-01-13T09:57:20.906Z,66.95
2023-01-13T09:59:51.466Z,66.30
2023-01-13T10:02:27.193Z,66.36
2023-01-13T10:05:16.650Z,66.22
2023-01-13T10:07:55.235Z,65.69
2023-01-13T10:10:45.195Z,65.00
2023-01-13T10:13:22.841Z,65.47
2023-01-13T10:16:23.206Z,65.50
2023-01-13T10:19:04.001Z,66.96
2023-01-13T10:21:59.125Z,65.86
2023-01-13T10:24:59.413Z,67.28
2023-01-13T10:27:37.944Z,67.63
2023-01-13T10:30:21.456Z,68.48
2023-01-13T10:32:56.463Z,67.48
2023-01-13T10:35:59.585Z,68.36
2023-01-13T10:38:32.238Z,68.47
2023-01-13T10:41:03.112Z,68.28
2023-01-13T10:43:34.262Z,66.46
2023-01-13T10:46:08.484Z,66.24
2023-01-13T10:48:41.606Z,67.15
2023-01-13T10:51:37.948Z,67.13
2023-01-13T10:54:15.373Z,67.96
2023-01-13T10:56:46.344Z,68.11
2023-01-13T10:59:16.145Z,66.43
2023-01-13T11:01:59.153Z,68.79
2023-01-13T11:04:43.240Z,69.12
2023-01-13T11:07:33.546Z,69.59
2023-01-13T11:10:04.866Z,68.72
2023-01-13T11:12:35.831Z,69.19
2023-01-13T11:15:14.733Z,69.91
2023-01-13T11:17:54.213Z,70.55
2023-01-13T11:20:32.521Z,69.06
2023-01-13T11:23:11.546Z,67.78
2023-01-13T11:25:45.369Z,67.45
2023-01-13T11:28:38.979Z,68.07
2023-01-13T11:31:35.452Z,68.60
2023-01-13T11:34:28.731Z,67.14
2023-01-13T11:37:00.287Z,68.18
2023-01-13T11:40:04.320Z,68.48
2023-01-13T11:42:40.600Z,68.55
2023-01-13T11:45:36.413Z,68.35
2023-01-13T11:48:08.144Z,68.48
2023-01-13T11:51:19.207Z,67.60
2023-01-13T11:54:06.504Z,69.06
2023-01-13T11:56:44.210Z,68.86
2023-01-13T11:59:51.258Z,69.34
2023-01-13T12:02:22.869Z,68.67
2023-01-13T12:05:05.200Z,68.78
2023-01-13T12:07:47.304Z,68.32
2023-01-13T12:10:31.202Z,69.60
2023-01-13T12:13:45.194Z,69.47
2023-01-13T12:16:27.457Z,69.12
2023-01-13T12:19:26.219Z,70.07
2023-01-13T12:22:10.662Z,69.71
2023-01-13T12:24:51.875Z,69.41
2023-01-13T12:27:49.996Z,68.71
2023-01-13T12:30:24.259Z,69.34
2023-01-13T12:32:56.355Z,69.55
2023-01-13T12:35:43.190Z,68.57
2023-01-13T12:38:29.198Z,67.17
2023-01-13T12:41:28.135Z,68.81
2023-01-13T12:44:16.175Z,67.83
2023-01-13T12:46:58.457Z,67.76
2023-01-13T12:49:31.299Z,69.04
2023-01-13T12:52:07.924Z,69.32
2023-01-13T12:54:38.009Z,68.01
2023-01-13T12:57:17.175Z,68.96
2023-01-13T13:00:05.252Z,66.63
2023-01-13T13:03:23.979Z,67.78
2023-01-13T13:06:01.673Z,67.57
2023-01-13T13:09:04.057Z,68.06
2023-01-13T13:12:04.226Z,67.38
2023-01-13T13:14:42.470Z,67.04
2023-01-13T13:17:31.698Z,68.17
2023-01-13T13:20:05.198Z,67.58
2023-01-13T13:22:52.275Z,68.91
2023-01-13T13:25:24.441Z,68.56
2023-01-13T13:28:02.442Z,68.26
2023-01-13T13:34:02.508Z,68.92
2023-01-13T13:36:49.152Z,69.09
2023-01-13T13:39:46.850Z,67.66
2023-01-13T13:42:44.126Z,66.82
2023-01-13T13:45:43.443Z,68.04
2023-01-13T13:48:31.252Z,67.87
2023-01-13T13:51:42.431Z,67.74
2023-01-13T13:54:21.285Z,68.78
2023-01-13T13:56:53.147Z,67.15
2023-01-13T14:02:18.878Z,65.92
2023-01-13T14:04:49.570Z,66.50
2023-01-13T14:09:58.096Z,67.17
2023-01-13T14:12:28.130Z,67.49
2023-01-13T14:15:04.147Z,66.59
2023-01-13T14:17:40.189Z,65.96
2023-01-13T14:20:19.276Z,66.13
2023-01-13T14:22:53.108Z,65.39
2023-01-13T14:25:39.202Z,64.99
2023-01-13T14:31:08.486Z,65.05
2023-01-13T14:33:59.642Z,64.46
2023-01-13T14:36:38.179Z,64.36
2023-01-13T14:39:13.079Z,64.70
2023-01-13T14:41:43.741Z,66.29
2023-01-13T14:44:36.200Z,67.40
2023-01-13T14:47:28.187Z,66.55
2023-01-13T14:50:32.245Z,66.00
2023-01-13T14:53:24.577Z,67.43
2023-01-13T14:55:55.402Z,67.70
2023-01-13T14:58:29.422Z,68.11
2023-01-13T15:01:38.631Z,68.23
2023-01-13T15:04:27.080Z,67.82
2023-01-13T15:06:56.755Z,67.84
2023-01-13T15:09:35.144Z,67.67
2023-01-13T15:12:25.843Z,67.60
2023-01-13T15:15:04.095Z,69.12
2023-01-13T15:17:43.143Z,67.57
2023-01-13T15:20:24.107Z,69.33
2023-01-13T15:22:54.387Z,68.96
2023-01-13T15:25:25.214Z,70.02
2023-01-13T15:27:58.064Z,69.37
2023-01-13T15:30:38.143Z,69.32
2023-01-13T15:33:21.274Z,68.34
2023-01-13T15:35:52.822Z,68.46
2023-01-13T15:38:28.130Z,68.93
2023-01-13T15:41:04.356Z,68.57
2023-01-13T15:43:56.275Z,68.45
2023-01-13T15:46:39.914Z,69.84
2023-01-13T15:49:36.133Z,68.36
2023-01-13T15:52:15.927Z,68.32
2023-01-13T15:54:43.785Z,68.28
2023-01-13T15:57:31.877Z,68.77
2023-01-13T16:03:07.204Z,66.97
2023-01-13T16:05:46.445Z,67.72
2023-01-13T16:08:20.255Z,68.20
2023-01-13T16:10:52.390Z,66.86
2023-01-13T16:13:26.094Z,68.62
2023-01-13T16:16:00.507Z,70.01
2023-01-13T16:18:31.333Z,70.57
2023-01-13T16:21:11.291Z,69.19
2023-01-13T16:23:50.305Z,68.85
2023-01-13T16:26:31.320Z,69.63
2023-01-13T16:29:06.047Z,69.25
2023-01-13T16:31:36.264Z,68.77
2023-01-13T16:36:50.443Z,68.44
2023-01-13T16:39:24.166Z,67.60
2023-01-13T16:41:56.170Z,68.94
2023-01-13T16:44:30.115Z,69.02
2023-01-13T16:46:59.306Z,68.14
2023-01-13T16:49:32.110Z,68.10
2023-01-13T16:52:03.122Z,68.16
2023-01-13T16:54:43.402Z,67.55
2023-01-13T16:57:26.210Z,67.70
2023-01-13T16:59:58.688Z,66.94
2023-01-13T17:02:32.120Z,67.17
2023-01-13T17:05:03.400Z,67.77
2023-01-13T17:07:35.419Z,67.74
2023-01-13T17:10:16.332Z,67.10
2023-01-13T17:13:04.585Z,67.45
2023-01-13T17:15:42.405Z,68.69
2023-01-13T17:18:25.206Z,67.36
2023-01-13T17:20:58.248Z,67.07
2023-01-13T17:23:37.181Z,66.77
2023-01-13T17:26:08.114Z,66.03
2023-01-13T17:28:42.204Z,66.37
2023-01-13T17:31:12.306Z,66.41
2023-01-13T17:33:43.869Z,66.75
2023-01-13T17:36:18.075Z,66.33
2023-01-13T17:38:58.408Z,66.26
2023-01-13T17:41:30.291Z,66.77
2023-01-13T17:44:03.136Z,66.53
2023-01-13T17:46:38.284Z,66.23
2023-01-13T17:49:18.066Z,65.24
2023-01-13T17:51:48.688Z,65.15
2023-01-13T17:54:25.326Z,65.44
2023-01-13T17:57:08.335Z,66.91
2023-01-13T17:59:36.337Z,67.03
2023-01-13T18:02:09.959Z,66.86
2023-01-13T18:04:43.150Z,67.06
2023-01-13T18:07:15.305Z,66.83
2023-01-13T18:09:44.113Z,66.56
2023-01-13T18:12:16.288Z,66.58
2023-01-13T18:14:45.635Z,65.96
2023-01-13T18:17:16.108Z,66.28
2023-01-13T18:23:07.293Z,66.72
2023-01-13T18:25:55.947Z,66.52
2023-01-13T18:28:23.653Z,66.18
2023-01-13T18:30:56.885Z,66.26
2023-01-13T18:33:31.256Z,67.03
2023-01-13T18:36:14.100Z,66.50
2023-01-13T18:38:49.855Z,65.86
2023-01-13T18:41:48.042Z,66.00
2023-01-13T18:46:53.074Z,66.12
2023-01-13T18:54:45.149Z,65.72
2023-01-13T18:57:14.467Z,65.62
2023-01-13T18:59:45.048Z,65.61
2023-01-13T19:02:19.134Z,65.19
2023-01-13T19:10:10.161Z,65.16
2023-01-13T19:12:46.606Z,65.24
2023-01-13T19:15:17.668Z,65.25
2023-01-13T19:17:46.858Z,65.37
2023-01-13T19:20:18.087Z,65.30
2023-01-13T19:22:58.100Z,65.64
2023-01-13T19:25:44.284Z,65.84
2023-01-13T19:28:13.328Z,65.90
2023-01-13T19:30:45.146Z,65.46
2023-01-13T19:33:20.279Z,65.56
2023-01-13T19:35:55.320Z,65.26
2023-01-13T19:38:29.081Z,65.35
2023-01-13T19:41:29.682Z,64.79
2023-01-13T19:47:00.911Z,64.87
2023-01-13T19:52:35.296Z,65.63
2023-01-13T19:55:11.963Z,65.45
2023-01-13T19:57:47.233Z,65.41
2023-01-13T20:00:27.878Z,65.14
2023-01-13T20:11:21.198Z,65.09
2023-01-13T20:13:53.703Z,64.76
2023-01-13T20:16:28.149Z,64.88
2023-01-13T20:19:06.805Z,64.90
2023-01-13T20:21:42.206Z,64.18
2023-01-13T20:24:24.089Z,64.93
2023-01-13T20:27:10.389Z,65.45
2023-01-13T20:29:46.908Z,65.38
2023-01-13T20:32:24.763Z,64.78
2023-01-13T20:34:55.479Z,65.99
2023-01-13T20:37:25.090Z,65.93
2023-01-13T20:39:55.414Z,65.93
2023-01-13T20:42:36.290Z,66.00
2023-01-13T20:45:12.250Z,64.89
2023-01-13T20:47:45.520Z,64.62
2023-01-13T20:50:20.386Z,64.70
2023-01-13T20:52:53.082Z,65.52
2023-01-13T20:55:26.372Z,65.16
2023-01-13T20:58:00.719Z,65.10
2023-01-13T21:03:16.103Z,64.94
2023-01-13T21:05:58.090Z,65.96
2023-01-13T21:08:29.194Z,66.09
2023-01-13T21:11:04.605Z,66.14
2023-01-13T21:13:44.095Z,65.66
2023-01-13T21:16:12.874Z,66.27
2023-01-13T21:19:05.434Z,66.23
2023-01-13T21:21:37.947Z,65.60
2023-01-13T21:24:08.024Z,65.15
2023-01-13T21:26:40.355Z,65.85
2023-01-13T21:29:09.619Z,65.11
2023-01-13T21:31:39.059Z,66.65
2023-01-13T21:34:15.183Z,66.98
2023-01-13T21:36:45.066Z,66.80
2023-01-13T21:39:15.630Z,67.21
2023-01-13T21:44:54.786Z,68.94
2023-01-13T21:47:41.943Z,67.14
2023-01-13T21:50:17.214Z,67.00
2023-01-13T21:52:49.121Z,68.22
2023-01-13T21:55:21.027Z,70.18
2023-01-13T21:58:03.184Z,69.66
2023-01-13T22:00:38.112Z,69.94
2023-01-13T22:03:09.152Z,70.00
2023-01-13T22:05:38.286Z,69.26
2023-01-13T22:08:08.095Z,68.09
2023-01-13T22:11:02.036Z,69.20
2023-01-13T22:13:38.092Z,68.10
2023-01-13T22:16:16.656Z,68.09
2023-01-13T22:18:44.672Z,68.18
2023-01-13T22:21:17.800Z,68.26
2023-01-13T22:23:47.476Z,68.26
2023-01-13T22:26:20.070Z,67.72
2023-01-13T22:28:49.619Z,67.97
2023-01-13T22:31:21.528Z,67.95
2023-01-13T22:33:54.905Z,68.30
2023-01-13T22:36:24.500Z,67.49
2023-01-13T22:38:55.663Z,66.07
2023-01-13T22:41:29.088Z,66.85
2023-01-13T22:44:00.194Z,66.90
2023-01-13T22:46:30.690Z,67.91
2023-01-13T22:48:59.337Z,67.88
2023-01-13T22:51:27.450Z,67.71
2023-01-13T22:53:55.627Z,67.47
2023-01-13T22:56:28.341Z,67.47
2023-01-13T22:59:02.225Z,67.45
2023-01-13T23:01:38.096Z,67.72
2023-01-13T23:04:07.185Z,67.53
2023-01-13T23:06:37.768Z,67.50
2023-01-13T23:09:07.121Z,67.27
2023-01-13T23:11:36.220Z,67.25
2023-01-13T23:14:06.421Z,67.56
2023-01-13T23:16:37.924Z,67.20
2023-01-13T23:19:08.385Z,67.00
2023-01-13T23:21:37.832Z,68.10
2023-01-13T23:24:07.716Z,67.39
2023-01-13T23:26:37.980Z,67.03
2023-01-13T23:29:11.977Z,66.93
2023-01-13T23:31:40.752Z,67.71
2023-01-13T23:34:10.613Z,67.57
2023-01-13T23:36:41.106Z,67.87
2023-01-13T23:39:10.194Z,67.68
2023-01-13T23:41:38.561Z,67.83
2023-01-13T23:44:07.029Z,67.40
2023-01-13T23:46:35.375Z,67.54
2023-01-13T23:49:03.950Z,67.86
2023-01-13T23:51:32.613Z,67.30
2023-01-13T23:54:00.771Z,66.77
2023-01-13T23:56:30.856Z,66.50
2023-01-13T23:58:59.134Z,66.40
